Cranfills Gap, Texas
Current Conditions -  °F | °C
As of 12:35 PM on Thursday 30 Oct 2014 (Local Time) from KMNZ Reporting Station
Clear Clear  
Wind Chill: 75°   Ceiling: Unl
Heat Index: 75°   Visibility: 10mi
Dew Point: 59°   Wind: 8mph
Humidity: 57%   Direction: 210°SSW
Pressure: 30.16"   Gusts: 18mph
Location:  31.77°N, 97.83°W
Report Text: KMNZ 301735Z AUTO 21007G16KT 10SM CLR 24/15 A3016 RMK AO2 T02400150
Loading
Personal Weather Stations






























Interactive Weather Map
Tropical Storm Tracking
New forecast layout! Learn more

10-Day Weather Forecast

Advertisements
Track Severe Weather on mobile